Time;durP1;ratioP1;P1;durP2;ratioP2;P2;SDS_P1;SDS_P2;PMS_P1;PMS_P2;Temp;Humidity;BMP_temperature;BMP_pressure;BME280_temperature;BME280_humidity;BME280_pressure;Samples;Min_cycle;Max_cycle;Signal;HPM_P1;HPM_P2
2021/10/02 00:44:54;;;;;;;23.48;14.93;;;13.80;99.90;;;;;;5047389;28;20106;-80
2021/10/02 00:47:21;;;;;;;30.77;17.75;;;13.80;99.90;;;;;;5061958;28;20128;-78
2021/10/02 00:49:48;;;;;;;27.45;17.67;;;13.80;99.90;;;;;;5046341;28;20062;-77
2021/10/02 00:52:16;;;;;;;21.13;16.75;;;13.80;99.90;;;;;;5046697;28;20028;-78
2021/10/02 00:54:43;;;;;;;18.00;14.70;;;13.80;99.90;;;;;;5046858;28;20021;-78
2021/10/02 00:57:09;;;;;;;25.75;17.67;;;13.80;99.90;;;;;;5061370;28;20035;-77
2021/10/02 00:59:37;;;;;;;22.60;16.55;;;13.70;99.90;;;;;;5044615;28;20408;-80
2021/10/02 01:02:07;;;;;;;25.40;17.70;;;13.70;99.90;;;;;;5046129;28;20123;-78
2021/10/02 01:05:09;;;;;;;31.60;19.17;;;13.70;99.90;;;;;;5046916;28;20028;-77
2021/10/02 01:07:56;;;;;;;22.38;15.93;;;13.70;99.90;;;;;;5046579;28;20036;-77
2021/10/02 01:10:48;;;;;;;21.67;16.60;;;13.70;99.90;;;;;;5046060;28;20029;-79
2021/10/02 01:13:37;;;;;;;26.60;17.98;;;13.70;99.90;;;;;;5046242;28;20913;-78
2021/10/02 01:16:13;;;;;;;24.05;17.95;;;13.70;99.90;;;;;;5045944;28;20040;-78
2021/10/02 01:18:39;;;;;;;;;;;13.70;99.90;;;;;;5046724;28;20029;-78
2021/10/02 01:21:37;;;;;;;21.08;15.23;;;13.70;99.90;;;;;;5046436;28;20324;-79
2021/10/02 01:24:19;;;;;;;18.23;13.20;;;13.70;99.90;;;;;;5047325;28;20579;-78
2021/10/02 01:27:08;;;;;;;20.45;14.82;;;13.70;99.90;;;;;;5045260;28;20029;-78
2021/10/02 01:29:37;;;;;;;24.40;16.33;;;13.70;99.90;;;;;;5046367;28;20028;-79
2021/10/02 01:32:19;;;;;;;21.63;13.38;;;13.70;99.90;;;;;;5061624;28;20024;-79
2021/10/02 01:48:49;;;;;;;23.58;15.70;;;13.70;99.90;;;;;;5023549;28;20335;-78
2021/10/02 01:51:16;;;;;;;24.30;15.82;;;13.70;99.90;;;;;;5041277;28;20049;-77
2021/10/02 01:53:44;;;;;;;20.48;15.15;;;13.70;99.90;;;;;;5046020;28;20067;-79
2021/10/02 01:56:14;;;;;;;30.35;15.38;;;13.70;99.90;;;;;;5045386;28;20482;-78
2021/10/02 01:58:42;;;;;;;22.67;15.20;;;13.70;99.90;;;;;;5045985;28;20462;-78
2021/10/02 02:01:08;;;;;;;21.88;15.55;;;13.70;99.90;;;;;;5044689;28;20025;-78
2021/10/02 02:03:37;;;;;;;;;;;13.70;99.90;;;;;;5046138;28;20437;-78
2021/10/02 02:06:04;;;;;;;17.75;11.32;;;13.70;99.90;;;;;;5045485;28;19908;-78
2021/10/02 02:08:30;;;;;;;18.10;12.48;;;13.70;99.90;;;;;;5046155;28;20037;-78
2021/10/02 02:10:58;;;;;;;24.60;16.00;;;13.70;99.90;;;;;;5045593;28;20040;-79
2021/10/02 02:13:26;;;;;;;29.85;14.70;;;13.70;99.90;;;;;;5045962;28;20025;-78
2021/10/02 02:15:53;;;;;;;20.75;13.95;;;13.70;99.90;;;;;;5049173;28;20029;-78
2021/10/02 02:18:22;;;;;;;19.33;13.05;;;13.70;99.90;;;;;;5065034;28;20413;-78
2021/10/02 02:20:56;;;;;;;18.90;13.05;;;13.70;99.90;;;;;;5065130;28;20037;-78
2021/10/02 02:23:25;;;;;;;21.35;13.27;;;13.70;99.90;;;;;;5049489;28;20071;-78
2021/10/02 02:25:58;;;;;;;16.20;12.35;;;13.70;99.90;;;;;;5049044;28;20033;-78
2021/10/02 02:28:25;;;;;;;28.25;10.52;;;13.70;99.90;;;;;;5049247;28;20027;-77
2021/10/02 02:30:51;;;;;;;18.52;11.15;;;13.70;99.90;;;;;;5049563;28;20112;-78
2021/10/02 02:33:18;;;;;;;;;;;13.70;99.90;;;;;;5049845;28;20113;-78
2021/10/02 02:35:45;;;;;;;18.63;12.80;;;13.70;99.90;;;;;;5049322;28;20323;-79
2021/10/02 02:38:11;;;;;;;21.40;11.80;;;13.70;99.90;;;;;;5047752;28;20072;-79
2021/10/02 02:40:37;;;;;;;16.58;11.75;;;13.70;99.90;;;;;;5048846;28;20033;-77
2021/10/02 02:43:04;;;;;;;17.90;12.02;;;13.70;99.90;;;;;;5049117;28;20041;-79
2021/10/02 02:45:32;;;;;;;20.65;12.35;;;13.70;99.90;;;;;;5064695;28;20032;-79
2021/10/02 02:48:13;;;;;;;18.90;12.27;;;13.70;99.90;;;;;;5064371;28;20032;-78
2021/10/02 02:50:55;;;;;;;22.05;10.90;;;13.70;99.90;;;;;;5049071;28;20023;-79
2021/10/02 02:53:59;;;;;;;18.65;13.40;;;13.70;99.90;;;;;;5064656;28;20054;-79
2021/10/02 02:56:46;;;;;;;15.38;11.82;;;13.70;99.90;;;;;;5047641;28;20060;-78
2021/10/02 02:59:27;;;;;;;;;;;13.60;99.90;;;;;;5049473;28;20029;-78
2021/10/02 03:01:54;;;;;;;27.20;13.00;;;13.60;99.90;;;;;;5049040;28;19912;-77
2021/10/02 03:04:26;;;;;;;20.90;13.50;;;13.60;99.90;;;;;;5048431;28;20013;-79
2021/10/02 03:06:52;;;;;;;20.52;12.80;;;13.70;99.90;;;;;;5048874;28;20037;-78
2021/10/02 03:09:20;;;;;;;16.23;11.57;;;13.60;99.90;;;;;;5047847;28;20031;-79
2021/10/02 03:11:49;;;;;;;16.25;10.98;;;13.60;99.90;;;;;;5048449;28;20029;-77
2021/10/02 03:14:19;;;;;;;31.35;13.15;;;13.60;99.90;;;;;;5064403;28;20116;-80
2021/10/02 03:16:46;;;;;;;16.15;11.82;;;13.60;99.90;;;;;;5046952;28;20029;-80
2021/10/02 03:19:13;;;;;;;23.02;11.85;;;13.70;99.90;;;;;;5048646;28;20033;-80
2021/10/02 03:21:40;;;;;;;15.10;11.15;;;13.60;99.90;;;;;;5063872;28;20036;-80
2021/10/02 03:24:07;;;;;;;18.33;10.20;;;13.60;99.90;;;;;;5048067;28;20025;-79
2021/10/02 03:26:33;;;;;;;18.08;9.93;;;13.50;99.90;;;;;;5048070;28;20031;-78
2021/10/02 03:29:00;;;;;;;15.75;8.40;;;13.60;99.90;;;;;;5048456;28;20021;-79
2021/10/02 03:31:26;;;;;;;14.88;9.20;;;13.60;99.90;;;;;;5048036;28;20029;-79
2021/10/02 03:33:53;;;;;;;13.95;9.23;;;13.60;99.90;;;;;;5048137;28;20078;-78
2021/10/02 03:36:19;;;;;;;14.98;10.50;;;13.60;99.90;;;;;;5048537;28;20029;-79
2021/10/02 03:38:46;;;;;;;18.00;11.27;;;13.60;99.90;;;;;;5047856;28;20057;-78
2021/10/02 03:41:12;;;;;;;13.55;9.55;;;13.60;99.90;;;;;;5047271;28;20036;-79
2021/10/02 03:43:38;;;;;;;;;;;13.50;99.90;;;;;;5048867;28;20033;-79
2021/10/02 03:46:04;;;;;;;;;;;13.60;99.90;;;;;;5048546;28;19908;-79
2021/10/02 03:48:30;;;;;;;;;;;13.60;99.90;;;;;;5046976;28;19961;-79
2021/10/02 03:50:57;;;;;;;;;;;13.50;99.90;;;;;;5063886;28;19913;-78
2021/10/02 03:53:24;;;;;;;;;;;13.60;99.90;;;;;;5048599;28;19909;-78
2021/10/02 03:55:49;;;;;;;;;;;13.50;99.90;;;;;;5046672;28;19909;-78
2021/10/02 03:58:14;;;;;;;;;;;13.50;99.90;;;;;;5046498;28;19909;-78
2021/10/02 04:00:40;;;;;;;;;;;13.50;99.90;;;;;;5048137;28;20380;-77
2021/10/02 04:03:05;;;;;;;;;;;13.50;99.90;;;;;;5048227;28;19917;-78
2021/10/02 04:05:31;;;;;;;;;;;13.50;99.90;;;;;;5047990;28;19908;-78
2021/10/02 04:07:56;;;;;;;;;;;13.50;99.90;;;;;;5047843;28;20053;-78
2021/10/02 04:10:22;;;;;;;;;;;13.50;99.90;;;;;;5047537;28;19954;-78
2021/10/02 04:12:47;;;;;;;;;;;13.50;99.90;;;;;;5048175;28;19999;-77
2021/10/02 04:15:13;;;;;;;;;;;13.50;99.90;;;;;;5047862;28;20042;-78
2021/10/02 04:17:39;;;;;;;;;;;13.50;99.90;;;;;;5047596;28;20377;-78
2021/10/02 04:20:05;;;;;;;;;;;13.50;99.90;;;;;;5063140;28;19916;-78
2021/10/02 04:22:30;;;;;;;;;;;13.50;99.90;;;;;;5046504;28;19971;-77
2021/10/02 04:24:56;;;;;;;;;;;13.40;99.90;;;;;;5047346;28;19944;-77
2021/10/02 04:27:21;;;;;;;;;;;13.40;99.90;;;;;;5047459;28;20292;-78
2021/10/02 04:29:47;;;;;;;;;;;13.40;99.90;;;;;;5046638;28;19908;-77
2021/10/02 04:32:12;;;;;;;;;;;13.40;99.90;;;;;;5046501;28;20021;-78
2021/10/02 04:34:38;;;;;;;;;;;13.40;99.90;;;;;;5046888;28;19909;-77
2021/10/02 04:37:03;;;;;;;;;;;13.40;99.90;;;;;;5046946;28;19908;-76
2021/10/02 04:39:29;;;;;;;;;;;13.40;99.90;;;;;;5047011;28;19954;-77
2021/10/02 04:41:54;;;;;;;;;;;13.40;99.90;;;;;;5047259;28;19919;-77
2021/10/02 04:44:20;;;;;;;;;;;13.40;99.90;;;;;;5047306;28;20003;-77
2021/10/02 04:46:46;;;;;;;;;;;13.40;99.90;;;;;;5047414;28;19958;-78
2021/10/02 04:49:11;;;;;;;;;;;13.40;99.90;;;;;;5046295;28;19908;-77
2021/10/02 04:51:38;;;;;;;;;;;13.40;99.90;;;;;;5047031;28;19905;-77
2021/10/02 04:54:03;;;;;;;;;;;13.40;99.90;;;;;;5062526;28;19909;-78
2021/10/02 04:56:29;;;;;;;;;;;13.40;99.90;;;;;;5045606;28;20258;-80
2021/10/02 04:58:54;;;;;;;;;;;13.40;99.90;;;;;;5045749;28;19909;-79
2021/10/02 05:01:20;;;;;;;;;;;13.40;99.90;;;;;;5046880;28;19915;-77
2021/10/02 05:03:45;;;;;;;;;;;13.40;99.90;;;;;;5047450;28;19912;-78
2021/10/02 05:06:11;;;;;;;;;;;13.40;99.90;;;;;;5062294;28;19909;-78
2021/10/02 05:08:36;;;;;;;;;;;13.40;99.90;;;;;;5047065;28;19909;-78
2021/10/02 05:11:02;;;;;;;;;;;13.40;99.90;;;;;;5046463;28;19905;-78
2021/10/02 05:13:28;;;;;;;;;;;13.40;99.90;;;;;;5047054;28;19915;-78
2021/10/02 05:15:54;;;;;;;;;;;13.40;99.90;;;;;;5047064;28;20397;-78
2021/10/02 05:18:20;;;;;;;;;;;13.40;99.90;;;;;;5047016;28;20324;-78
2021/10/02 05:20:45;;;;;;;;;;;13.50;99.90;;;;;;5045371;28;19909;-78
2021/10/02 05:23:11;;;;;;;;;;;13.40;99.90;;;;;;5046973;28;20300;-78
2021/10/02 05:25:36;;;;;;;;;;;13.50;99.90;;;;;;5046033;28;20399;-78
2021/10/02 05:28:02;;;;;;;;;;;13.60;99.90;;;;;;5046841;28;20366;-78
2021/10/02 05:30:27;;;;;;;;;;;13.60;99.90;;;;;;5062151;28;19919;-78
2021/10/02 05:32:53;;;;;;;;;;;13.60;99.90;;;;;;5045205;28;20518;-78
2021/10/02 05:35:19;;;;;;;;;;;13.70;99.90;;;;;;5046490;28;19909;-77
2021/10/02 05:37:46;;;;;;;;;;;13.80;99.90;;;;;;5061902;28;20423;-76
2021/10/02 05:40:12;;;;;;;;;;;13.80;99.90;;;;;;5046056;28;19943;-77
2021/10/02 05:42:37;;;;;;;;;;;13.80;99.90;;;;;;5046587;28;19916;-77
2021/10/02 05:45:04;;;;;;;;;;;13.90;99.90;;;;;;5061967;28;20328;-77
2021/10/02 05:47:29;;;;;;;;;;;13.90;99.90;;;;;;5046472;28;19948;-77
2021/10/02 05:49:55;;;;;;;;;;;14.00;99.90;;;;;;5048937;28;20750;-77
2021/10/02 05:52:21;;;;;;;;;;;14.00;99.90;;;;;;5050762;28;19920;-78
2021/10/02 05:54:46;;;;;;;;;;;14.10;99.90;;;;;;5050227;28;19927;-76
2021/10/02 05:57:12;;;;;;;;;;;14.20;99.90;;;;;;5050471;28;19905;-78
2021/10/02 05:59:37;;;;;;;;;;;14.30;99.90;;;;;;5049841;28;19908;-77
2021/10/02 06:02:03;;;;;;;;;;;14.30;99.90;;;;;;5049633;28;20365;-81
2021/10/02 06:04:29;;;;;;;;;;;14.30;99.90;;;;;;5050497;28;19948;-75
2021/10/02 06:06:54;;;;;;;;;;;14.40;99.90;;;;;;5049337;28;20359;-78
2021/10/02 06:09:20;;;;;;;;;;;14.40;99.90;;;;;;5049847;28;20023;-78
2021/10/02 06:11:45;;;;;;;;;;;14.40;99.90;;;;;;5050561;28;20400;-77
2021/10/02 06:14:11;;;;;;;;;;;14.40;99.90;;;;;;5050343;28;19913;-78
2021/10/02 06:16:38;;;;;;;;;;;14.50;99.90;;;;;;5050074;28;19987;-77
2021/10/02 06:19:04;;;;;;;;;;;14.50;99.90;;;;;;5049855;28;19913;-78
2021/10/02 06:21:29;;;;;;;;;;;14.60;99.90;;;;;;5065050;28;20316;-78
2021/10/02 06:23:58;;;;;;;;;;;14.60;99.90;;;;;;5049291;28;19920;-78
2021/10/02 06:26:24;;;;;;;;;;;14.70;99.90;;;;;;5050270;28;19966;-78
2021/10/02 06:28:50;;;;;;;;;;;14.70;99.90;;;;;;5049971;28;19908;-78
2021/10/02 06:31:15;;;;;;;;;;;14.80;99.90;;;;;;5049402;28;19912;-78
2021/10/02 06:33:41;;;;;;;;;;;14.80;99.90;;;;;;5049812;28;19913;-77
2021/10/02 06:36:06;;;;;;;;;;;14.90;99.40;;;;;;5048811;28;19955;-77
2021/10/02 06:38:32;;;;;;;;;;;14.90;98.40;;;;;;5048000;28;19970;-78
2021/10/02 06:40:57;;;;;;;;;;;15.00;96.90;;;;;;5049323;28;19996;-77
2021/10/02 06:43:23;;;;;;;;;;;15.00;96.30;;;;;;5049952;28;20389;-78
2021/10/02 06:45:48;;;;;;;;;;;15.10;96.60;;;;;;5049035;28;20420;-77
2021/10/02 06:48:14;;;;;;;;;;;15.30;96.90;;;;;;5049718;28;19976;-77
2021/10/02 06:50:39;;;;;;;;;;;15.40;94.90;;;;;;5048946;28;19913;-77
2021/10/02 06:53:05;;;;;;;;;;;15.60;94.20;;;;;;5049391;28;20734;-78
2021/10/02 06:55:31;;;;;;;;;;;16.30;92.80;;;;;;5049036;28;19908;-79
2021/10/02 06:57:56;;;;;;;;;;;17.20;90.40;;;;;;5048892;28;20009;-79
2021/10/02 07:00:22;;;;;;;;;;;18.10;85.50;;;;;;5063662;28;19905;-77
2021/10/02 07:02:47;;;;;;;;;;;18.80;81.50;;;;;;5049337;28;19917;-78
2021/10/02 07:05:14;;;;;;;;;;;19.40;73.30;;;;;;5049333;28;20280;-77
2021/10/02 07:07:40;;;;;;;;;;;19.70;73.20;;;;;;5048987;28;20027;-78
2021/10/02 07:10:06;;;;;;;;;;;19.70;72.40;;;;;;5048830;28;19995;-78
2021/10/02 07:12:32;;;;;;;;;;;19.50;68.80;;;;;;5049099;28;20495;-78
2021/10/02 07:14:57;;;;;;;;;;;19.70;70.20;;;;;;5049091;28;19909;-78
2021/10/02 07:17:23;;;;;;;;;;;20.00;68.90;;;;;;5047143;28;19924;-78
2021/10/02 07:19:48;;;;;;;;;;;20.20;66.20;;;;;;5048931;28;20023;-78
2021/10/02 07:22:14;;;;;;;;;;;20.10;65.70;;;;;;5048379;28;19912;-78
2021/10/02 07:24:39;;;;;;;;;;;20.00;65.40;;;;;;5048702;28;19923;-78
2021/10/02 07:27:05;;;;;;;;;;;19.90;67.00;;;;;;5047350;28;20559;-78
2021/10/02 07:29:31;;;;;;;;;;;19.70;63.90;;;;;;5048907;28;19913;-78
2021/10/02 07:31:56;;;;;;;;;;;19.50;63.80;;;;;;5048356;28;19904;-78
2021/10/02 07:34:22;;;;;;;;;;;19.30;65.00;;;;;;5048711;28;19976;-78
2021/10/02 07:36:48;;;;;;;;;;;19.20;64.70;;;;;;5048872;28;19909;-78
2021/10/02 07:39:13;;;;;;;;;;;19.20;66.00;;;;;;5048320;28;20432;-78
2021/10/02 07:41:40;;;;;;;;;;;19.20;67.60;;;;;;5047615;28;20377;-78
2021/10/02 07:44:06;;;;;;;;;;;19.30;66.60;;;;;;5048149;28;20007;-77
2021/10/02 07:46:32;;;;;;;;;;;19.60;67.30;;;;;;5048522;28;19992;-78
2021/10/02 07:48:58;;;;;;;;;;;19.70;65.40;;;;;;5048179;28;20634;-78
2021/10/02 07:51:24;;;;;;;;;;;19.70;62.80;;;;;;5048428;28;20404;-78
2021/10/02 07:53:51;;;;;;;;;;;19.70;63.30;;;;;;5047603;28;19927;-78
2021/10/02 07:56:17;;;;;;;;;;;19.70;63.60;;;;;;5048304;28;19948;-78
2021/10/02 07:58:42;;;;;;;;;;;19.70;63.60;;;;;;5063205;28;20356;-76
2021/10/02 08:01:08;;;;;;;;;;;19.70;64.30;;;;;;5063518;28;20352;-77
2021/10/02 08:03:35;;;;;;;;;;;20.00;63.80;;;;;;5046943;28;20372;-78
2021/10/02 08:06:00;;;;;;;;;;;20.10;63.90;;;;;;5047860;28;20651;-77
2021/10/02 08:08:26;;;;;;;;;;;20.30;64.10;;;;;;5047602;28;19966;-77
2021/10/02 08:10:51;;;;;;;;;;;20.70;63.60;;;;;;5047476;28;19935;-77
2021/10/02 08:13:18;;;;;;;;;;;21.10;62.10;;;;;;5045936;28;19916;-76
2021/10/02 08:15:45;;;;;;;;;;;21.10;61.10;;;;;;5046268;28;19908;-77
2021/10/02 08:18:12;;;;;;;;;;;21.10;60.80;;;;;;5062586;28;20301;-77
2021/10/02 08:20:38;;;;;;;;;;;21.00;60.00;;;;;;5047572;28;19909;-76
2021/10/02 08:23:05;;;;;;;;;;;21.00;58.20;;;;;;5047428;28;19916;-77
2021/10/02 08:25:31;;;;;;;;;;;21.00;59.30;;;;;;5047535;28;20289;-77
2021/10/02 08:27:58;;;;;;;;;;;21.50;59.10;;;;;;5047750;28;19909;-78
2021/10/02 08:30:23;;;;;;;;;;;22.20;56.80;;;;;;5062680;28;20395;-77
2021/10/02 08:32:49;;;;;;;;;;;22.20;55.90;;;;;;5047376;28;19905;-77
2021/10/02 08:35:15;;;;;;;;;;;22.10;56.50;;;;;;5047187;28;19909;-77
2021/10/02 08:37:41;;;;;;;;;;;21.60;57.00;;;;;;5062654;28;19909;-76
2021/10/02 08:40:08;;;;;;;;;;;21.30;57.50;;;;;;5047428;28;19916;-77
2021/10/02 08:42:36;;;;;;;;;;;21.10;59.30;;;;;;5047326;28;20083;-76
2021/10/02 08:45:02;;;;;;;;;;;20.90;59.30;;;;;;5062458;28;19959;-77
2021/10/02 08:47:27;;;;;;;;;;;20.60;60.50;;;;;;5046806;28;19940;-77
2021/10/02 08:49:53;;;;;;;;;;;20.50;60.40;;;;;;5046708;28;20344;-77
2021/10/02 08:52:20;;;;;;;;;;;20.40;61.60;;;;;;5045859;28;19908;-77
2021/10/02 08:54:51;;;;;;;;;;;20.30;60.00;;;;;;5046089;28;19931;-75
2021/10/02 08:57:24;;;;;;;;;;;20.20;59.90;;;;;;5046682;28;20280;-76
2021/10/02 08:59:50;;;;;;;;;;;20.20;58.70;;;;;;5047264;28;19984;-77
2021/10/02 09:02:16;;;;;;;;;;;20.00;59.30;;;;;;5062102;28;20067;-77
2021/10/02 09:04:44;;;;;;;;;;;20.00;59.20;;;;;;5046875;28;19992;-76
2021/10/02 09:07:10;;;;;;;;;;;20.00;58.60;;;;;;5046514;28;20396;-76
2021/10/02 09:09:35;;;;;;;;;;;20.20;59.20;;;;;;5047081;28;19915;-77
2021/10/02 09:12:02;;;;;;;;;;;20.80;59.80;;;;;;5046485;28;19909;-77
2021/10/02 09:14:28;;;;;;;;;;;21.60;57.20;;;;;;5046735;28;19931;-77
2021/10/02 09:16:55;;;;;;;;;;;22.40;55.50;;;;;;5046807;28;20366;-77
2021/10/02 09:19:20;;;;;;;;;;;22.70;53.80;;;;;;5062275;28;20331;-77
2021/10/02 09:22:01;;;;;;;;;;;23.10;52.80;;;;;;5045901;28;19912;-77
2021/10/02 09:24:28;;;;;;;;;;;22.90;51.70;;;;;;5046329;28;19913;-77
2021/10/02 09:26:54;;;;;;;;;;;22.50;52.10;;;;;;5062590;28;19909;-75
2021/10/02 09:29:33;;;;;;;;;;;22.20;52.40;;;;;;5046561;28;19915;-78
2021/10/02 09:32:00;;;;;;;;;;;21.80;55.20;;;;;;5045127;28;20345;-77
2021/10/02 09:34:26;;;;;;;;;;;21.50;55.20;;;;;;5061692;28;19909;-77
2021/10/02 09:36:52;;;;;;;;;;;21.40;56.40;;;;;;5044331;28;19995;-77
2021/10/02 09:39:18;;;;;;;;;;;21.40;54.60;;;;;;5046286;28;20377;-77
2021/10/02 09:41:51;;;;;;;;;;;21.30;54.60;;;;;;5061469;28;20007;-76
2021/10/02 09:44:23;;;;;;;;;;;21.20;54.90;;;;;;5046344;28;19913;-77
2021/10/02 09:46:49;;;;;;;;;;;21.20;53.80;;;;;;5046286;28;20260;-77
2021/10/02 09:49:14;;;;;;;;;;;21.40;54.10;;;;;;5061764;28;20284;-77
2021/10/02 09:51:41;;;;;;;;;;;21.90;54.50;;;;;;5046063;28;20401;-77
2021/10/02 09:54:07;;;;;;;;;;;22.10;54.10;;;;;;5046158;28;19995;-77
2021/10/02 09:56:33;;;;;;;;;;;22.40;53.40;;;;;;5046553;28;20339;-78
2021/10/02 09:58:59;;;;;;;;;;;22.50;52.50;;;;;;5046105;28;19913;-78
2021/10/02 10:01:25;;;;;;;;;;;22.40;52.80;;;;;;5043710;28;20020;-77
2021/10/02 10:03:51;;;;;;;;;;;22.50;51.50;;;;;;5046207;28;19926;-78
2021/10/02 10:06:24;;;;;;;;;;;22.20;52.20;;;;;;5046189;28;19909;-77
2021/10/02 10:09:09;;;;;;;;;;;22.20;52.40;;;;;;5045846;28;20353;-77
2021/10/02 10:11:40;;;;;;;;;;;22.00;52.30;;;;;;5045128;28;20349;-78
2021/10/02 10:14:06;;;;;;;;;;;21.70;53.80;;;;;;5046556;28;19932;-78
2021/10/02 10:16:38;;;;;;;;;;;21.50;55.10;;;;;;5045963;28;20280;-78
2021/10/02 10:19:20;;;;;;;;;;;21.40;54.70;;;;;;5061922;28;20035;-78
2021/10/02 10:22:02;;;;;;;;;;;21.40;54.00;;;;;;5045899;28;19912;-77
2021/10/02 10:24:27;;;;;;;;;;;21.40;54.90;;;;;;5046139;28;19940;-78
2021/10/02 10:26:54;;;;;;;;;;;21.30;55.90;;;;;;5045666;28;19974;-78
2021/10/02 10:29:20;;;;;;;;;;;21.30;55.50;;;;;;5045915;28;19908;-77
2021/10/02 10:31:56;;;;;;;;;;;21.10;55.10;;;;;;5045830;28;20392;-78
2021/10/02 10:34:22;;;;;;;;;;;20.80;55.30;;;;;;5045842;28;20462;-78
2021/10/02 10:36:47;;;;;;;;;;;20.80;57.50;;;;;;5064463;28;20297;-79
2021/10/02 10:39:13;;;;;;;;;;;20.90;57.70;;;;;;5049716;28;20381;-78
2021/10/02 10:41:38;;;;;;;;;;;21.10;57.30;;;;;;5049446;28;19909;-78
2021/10/02 10:44:04;;;;;;;;;;;21.20;54.40;;;;;;5049275;28;19908;-78
2021/10/02 10:46:29;;;;;;;;;;;21.00;56.20;;;;;;5049456;28;19914;-79
2021/10/02 10:48:55;;;;;;;;;;;20.70;57.40;;;;;;5047995;28;19908;-79
2021/10/02 10:51:27;;;;;;;;;;;20.60;57.50;;;;;;5049180;28;20120;-79
2021/10/02 10:53:53;;;;;;;;;;;20.50;57.20;;;;;;5049512;28;19905;-79
2021/10/02 10:56:37;;;;;;;;;;;20.50;57.00;;;;;;5049236;28;19962;-78
2021/10/02 10:59:02;;;;;;;;;;;20.40;56.30;;;;;;5049129;28;19943;-78
2021/10/02 11:01:33;;;;;;;;;;;20.20;57.10;;;;;;5049460;28;19951;-78
2021/10/02 11:03:58;;;;;;;;;;;20.20;57.50;;;;;;5048039;28;19916;-79
2021/10/02 11:06:44;;;;;;;;;;;20.20;57.40;;;;;;5047590;28;19908;-77
2021/10/02 11:09:09;;;;;;;;;;;20.20;57.30;;;;;;5064340;28;20297;-79
2021/10/02 11:11:44;;;;;;;;;;;20.20;57.40;;;;;;5047982;28;19905;-79
2021/10/02 11:14:13;;;;;;;;;;;20.10;57.20;;;;;;5048034;28;20001;-78
2021/10/02 11:16:40;;;;;;;;;;;19.80;57.80;;;;;;5049232;28;20069;-79
2021/10/02 11:19:35;;;;;;;;;;;19.70;58.40;;;;;;5064603;28;19992;-78
2021/10/02 11:22:03;;;;;;;;;;;19.70;59.60;;;;;;5034798;28;19919;-78
2021/10/02 11:24:36;;;;;;;;;;;19.70;59.00;;;;;;5048813;28;19912;-78
2021/10/02 11:27:01;;;;;;;;;;;19.70;58.30;;;;;;5049125;28;19912;-80
2021/10/02 11:29:28;;;;;;;;;;;19.90;57.90;;;;;;5048610;28;19977;-77
2021/10/02 11:32:12;;;;;;;;;;;19.90;57.50;;;;;;5048837;28;20501;-77
2021/10/02 11:34:58;;;;;;;;;;;20.00;57.50;;;;;;5047492;28;19908;-78
2021/10/02 11:37:24;;;;;;;;;;;19.90;56.60;;;;;;5048369;28;19908;-79
2021/10/02 11:39:49;;;;;;;;;;;19.60;57.20;;;;;;5046860;28;20419;-77
2021/10/02 11:42:15;;;;;;;;;;;19.40;58.60;;;;;;5047516;28;19914;-79
2021/10/02 11:44:44;;;;;;;;;;;19.20;58.20;;;;;;5048522;28;19924;-77
2021/10/02 11:47:32;;;;;;;;;;;19.20;59.00;;;;;;5048579;28;19916;-78
2021/10/02 11:50:06;;;;;;;;;;;19.10;58.30;;;;;;5048832;28;20388;-78
2021/10/02 11:52:32;;;;;;;;;;;19.00;59.70;;;;;;5049591;28;19913;-78
2021/10/02 11:55:18;;;;;;;;;;;19.20;60.00;;;;;;5048372;28;19909;-78
2021/10/02 11:58:10;;;;;;;;;;;19.30;59.10;;;;;;5047698;28;20347;-78
2021/10/02 12:00:51;;;;;;;;;;;19.40;59.10;;;;;;5048440;28;19915;-79
2021/10/02 12:03:16;;;;;;;;;;;19.50;59.00;;;;;;5048334;28;19919;-78
2021/10/02 12:05:43;;;;;;;;;;;19.40;58.80;;;;;;5046519;28;19908;-78
2021/10/02 12:08:08;;;;;;;;;;;19.40;59.10;;;;;;5047803;28;20706;-79
2021/10/02 12:10:54;;;;;;;;;;;19.50;59.20;;;;;;5063694;28;19947;-79
2021/10/02 12:13:36;;;;;;;;;;;19.60;58.50;;;;;;5062110;28;20319;-79
2021/10/02 12:16:09;;;;;;;;;;;19.60;59.00;;;;;;5047592;28;19913;-76
2021/10/02 12:18:45;;;;;;;;;;;19.70;59.90;;;;;;5048210;28;19909;-78
2021/10/02 12:21:15;;;;;;;;;;;19.60;59.00;;;;;;5063016;28;20587;-78
2021/10/02 12:23:50;;;;;;;;;;;19.50;59.30;;;;;;5047428;28;19919;-78
2021/10/02 12:26:16;;;;;;;;;;;19.50;59.80;;;;;;5047584;28;19904;-79
2021/10/02 12:28:41;;;;;;;;;;;19.50;58.80;;;;;;5063178;28;19912;-78
2021/10/02 12:31:07;;;;;;;;;;;19.30;59.00;;;;;;5047273;28;19935;-78
2021/10/02 12:33:32;;;;;;;;;;;19.30;60.70;;;;;;5047732;28;19939;-77
2021/10/02 12:35:58;;;;;;;;;;;19.60;60.00;;;;;;5046821;28;19958;-78
2021/10/02 12:38:23;;;;;;;;;;;19.50;60.00;;;;;;5047378;28;20600;-78
2021/10/02 12:40:53;;;;;;;;;;;19.50;60.50;;;;;;5047679;28;20562;-78
2021/10/02 12:43:18;;;;;;;;;;;19.60;59.30;;;;;;5047577;28;19913;-79
2021/10/02 12:45:45;;;;;;;;;;;19.50;60.10;;;;;;5047534;28;19924;-78
2021/10/02 12:48:13;;;;;;;;;;;19.40;59.60;;;;;;5046957;28;20288;-81
2021/10/02 12:50:40;;;;;;;;;;;19.30;60.60;;;;;;5062415;28;19908;-78
2021/10/02 12:53:05;;;;;;;;;;;19.30;61.00;;;;;;5046914;28;19912;-79
2021/10/02 12:55:31;;;;;;;;;;;19.30;60.30;;;;;;5046151;28;19913;-78
2021/10/02 12:57:57;;;;;;;;;;;19.30;60.80;;;;;;5046501;28;19913;-78
2021/10/02 13:00:26;;;;;;;;;;;19.30;61.00;;;;;;5046735;28;19905;-78
2021/10/02 13:02:55;;;;;;;;;;;19.40;60.60;;;;;;5047246;28;19916;-78
2021/10/02 13:05:22;;;;;;;;;;;19.70;60.90;;;;;;5062311;28;19909;-78
2021/10/02 13:07:49;;;;;;;;;;;19.80;60.80;;;;;;5047015;28;20495;-77
2021/10/02 13:10:26;;;;;;;;;;;19.80;60.20;;;;;;5047131;28;20300;-78
2021/10/02 13:12:52;;;;;;;;;;;19.70;60.00;;;;;;5047384;28;19955;-78
2021/10/02 13:15:21;;;;;;;;;;;19.70;61.00;;;;;;5045622;28;19913;-78
2021/10/02 13:18:06;;;;;;;;;;;19.70;60.50;;;;;;5045264;28;20308;-78
2021/10/02 13:20:51;;;;;;;;;;;19.70;61.10;;;;;;5046736;28;19916;-78
2021/10/02 13:23:22;;;;;;;;;;;19.70;61.00;;;;;;5046757;28;20022;-78
2021/10/02 13:26:03;;;;;;;;;;;19.60;60.80;;;;;;5046194;28;19909;-78
2021/10/02 13:28:30;;;;;;;;;;;19.60;60.40;;;;;;5046846;28;19915;-78
2021/10/02 13:31:04;;;;;;;;;;;19.50;60.60;;;;;;5062387;28;19908;-78
2021/10/02 13:33:30;;;;;;;;;;;19.40;61.80;;;;;;5062021;28;19909;-78
2021/10/02 13:35:59;;;;;;;;;;;19.40;62.10;;;;;;5061608;28;20018;-79
2021/10/02 13:38:40;;;;;;;;;;;19.30;62.10;;;;;;5046785;28;19971;-78
2021/10/02 13:41:07;;;;;;;;;;;19.20;61.40;;;;;;5046586;28;19912;-80
2021/10/02 13:43:32;;;;;;;;;;;19.10;62.80;;;;;;5046321;28;19924;-79
2021/10/02 13:45:58;;;;;;;;;;;18.90;63.40;;;;;;5061453;28;19976;-78
2021/10/02 13:48:29;;;;;;;;;;;18.80;64.20;;;;;;5046375;28;20369;-78
2021/10/02 13:50:55;;;;;;;;;;;18.80;64.30;;;;;;5046604;28;20535;-79
2021/10/02 13:53:21;;;;;;;;;;;18.80;64.40;;;;;;5061656;28;19912;-78
2021/10/02 13:55:47;;;;;;;;;;;18.80;65.00;;;;;;5046195;28;19909;-78
2021/10/02 13:58:12;;;;;;;;;;;18.80;64.60;;;;;;5045876;28;20376;-79
2021/10/02 14:00:38;;;;;;;;;;;18.80;63.80;;;;;;5046802;28;20380;-79
2021/10/02 14:03:04;;;;;;;;;;;18.80;63.80;;;;;;5061145;28;19917;-80
2021/10/02 14:05:30;;;;;;;;;;;18.80;64.20;;;;;;5046535;28;20018;-79
2021/10/02 14:07:55;;;;;;;;;;;18.90;63.40;;;;;;5045889;28;19998;-78
2021/10/02 14:10:21;;;;;;;;;;;19.00;63.60;;;;;;5048004;28;20116;-79
2021/10/02 14:12:47;;;;;;;;;;;19.00;63.40;;;;;;5050343;28;19927;-78
2021/10/02 14:15:13;;;;;;;;;;;19.20;63.40;;;;;;5066191;28;20551;-78
2021/10/02 14:17:38;;;;;;;;;;;19.20;63.50;;;;;;5050016;28;20238;-78
2021/10/02 14:20:05;;;;;;;;;;;19.30;63.70;;;;;;5049818;28;20371;-78
2021/10/02 14:22:31;;;;;;;;;;;19.50;62.70;;;;;;5049868;28;19947;-79
2021/10/02 14:24:56;;;;;;;;;;;19.50;62.50;;;;;;5050116;28;19913;-79
2021/10/02 14:27:22;;;;;;;;;;;19.50;62.60;;;;;;5048757;28;19920;-78
2021/10/02 14:29:48;;;;;;;;;;;19.60;62.80;;;;;;5048675;28;19928;-79
2021/10/02 14:32:13;;;;;;;;;;;19.60;62.50;;;;;;5065336;28;19913;-78
2021/10/02 14:34:39;;;;;;;;;;;19.60;62.40;;;;;;5065065;28;20327;-79
2021/10/02 14:37:05;;;;;;;;;;;19.60;62.00;;;;;;5050124;28;19908;-78
2021/10/02 14:39:30;;;;;;;;;;;19.50;62.10;;;;;;5049836;28;19987;-78
2021/10/02 14:41:56;;;;;;;;;;;19.50;62.80;;;;;;5049335;28;19916;-78
2021/10/02 14:44:22;;;;;;;;;;;19.30;62.60;;;;;;5049953;28;19920;-78
2021/10/02 14:46:48;;;;;;;;;;;19.10;63.30;;;;;;5065063;28;19915;-78
2021/10/02 14:49:14;;;;;;;;;;;19.00;64.10;;;;;;5065109;28;19909;-79
2021/10/02 14:51:41;;;;;;;;;;;18.90;64.60;;;;;;5064738;28;19943;-78
2021/10/02 14:54:07;;;;;;;;;;;18.80;65.10;;;;;;5064665;28;19909;-79
2021/10/02 14:56:33;;;;;;;;;;;18.70;65.20;;;;;;5064993;28;19916;-79
2021/10/02 14:58:59;;;;;;;;;;;18.60;66.30;;;;;;5065005;28;19909;-78